THY69T HTDA-FLKK
Flight info
| Callsign | THY69T |
|---|---|
| Flight time | 2h 3m |
| Altitude | 36000 |
| Route | TEVE1D ODGAT UL431 APGIK DCT OKSIX |
| Aircraft | B38M/M-SADE1E2E3FGHIJ1M3RWXYZ/LB1 |
Departure
| Time | 2026-05-07 06:42 |
|---|---|
| Airport | Julius Nyerere International Airport (HTDA) |
Arrival
| Time | 2026-05-07 08:45 |
|---|---|
| Airport | Kenneth Kaunda International Airport (FLKK) |
| Time | Latitude | Longitude | Altitude | Speed | Heading |
|---|---|---|---|---|---|
| 2026-05-07 06:34 | -6.86411 | 39.21655 | 182 ft | 0 kts | 225° |
| 2026-05-07 06:41 | -6.86420 | 39.21646 | 182 ft | 7 kts | 225° |
| 2026-05-07 06:41 | -6.86581 | 39.21486 | 182 ft | 72 kts | 224° |
| 2026-05-07 06:41 | -6.87122 | 39.20947 | 182 ft | 143 kts | 225° |
| 2026-05-07 06:41 | -6.87894 | 39.20178 | 658 ft | 162 kts | 221° |
| 2026-05-07 06:42 | -6.88738 | 39.19401 | 1329 ft | 170 kts | 220° |
| 2026-05-07 06:42 | -6.89626 | 39.18513 | 1838 ft | 189 kts | 223° |
| 2026-05-07 06:42 | -6.90619 | 39.17503 | 2301 ft | 216 kts | 223° |
| 2026-05-07 06:42 | -6.91732 | 39.16381 | 2907 ft | 237 kts | 223° |
| 2026-05-07 06:43 | -6.92937 | 39.15165 | 3526 ft | 256 kts | 223° |
| 2026-05-07 06:43 | -6.94230 | 39.13869 | 3969 ft | 266 kts | 223° |
| 2026-05-07 06:43 | -6.95550 | 39.12542 | 4379 ft | 270 kts | 223° |
| 2026-05-07 06:43 | -6.96868 | 39.11213 | 4775 ft | 271 kts | 223° |
| 2026-05-07 06:44 | -6.98209 | 39.09864 | 5187 ft | 273 kts | 223° |
| 2026-05-07 06:44 | -6.99560 | 39.08509 | 5577 ft | 275 kts | 223° |
| 2026-05-07 06:44 | -7.00922 | 39.07150 | 5928 ft | 276 kts | 223° |
| 2026-05-07 06:44 | -7.02291 | 39.05778 | 6309 ft | 278 kts | 223° |
| 2026-05-07 06:45 | -7.03666 | 39.04392 | 6651 ft | 280 kts | 223° |
| 2026-05-07 06:45 | -7.05051 | 39.03010 | 7003 ft | 282 kts | 223° |
| 2026-05-07 06:45 | -7.06452 | 39.01615 | 7354 ft | 283 kts | 223° |
| 2026-05-07 06:45 | -7.07852 | 39.00210 | 7721 ft | 284 kts | 223° |
| 2026-05-07 06:46 | -7.09242 | 38.98818 | 8071 ft | 286 kts | 223° |
| 2026-05-07 06:46 | -7.10658 | 38.97398 | 8457 ft | 288 kts | 223° |
| 2026-05-07 06:46 | -7.12088 | 38.95967 | 8719 ft | 290 kts | 223° |
| 2026-05-07 06:46 | -7.13516 | 38.94538 | 8942 ft | 290 kts | 223° |
| 2026-05-07 06:47 | -7.14956 | 38.93095 | 9204 ft | 292 kts | 223° |
| 2026-05-07 06:47 | -7.16380 | 38.91669 | 9434 ft | 293 kts | 223° |
| 2026-05-07 06:47 | -7.17831 | 38.90214 | 9697 ft | 294 kts | 223° |
| 2026-05-07 06:47 | -7.19287 | 38.88759 | 9940 ft | 295 kts | 223° |
| 2026-05-07 06:48 | -7.20742 | 38.87297 | 10167 ft | 296 kts | 223° |
| 2026-05-07 06:48 | -7.22208 | 38.85825 | 10461 ft | 297 kts | 223° |
| 2026-05-07 06:48 | -7.23660 | 38.84372 | 10804 ft | 298 kts | 223° |
| 2026-05-07 06:48 | -7.25142 | 38.82887 | 11151 ft | 300 kts | 223° |
| 2026-05-07 06:49 | -7.26618 | 38.81406 | 11520 ft | 301 kts | 223° |
| 2026-05-07 06:49 | -7.28111 | 38.79903 | 11861 ft | 302 kts | 224° |
| 2026-05-07 06:49 | -7.29595 | 38.78420 | 12217 ft | 304 kts | 223° |
| 2026-05-07 06:49 | -7.31095 | 38.76916 | 12566 ft | 305 kts | 223° |
| 2026-05-07 06:50 | -7.32611 | 38.75395 | 13036 ft | 312 kts | 223° |
| 2026-05-07 06:50 | -7.34189 | 38.73813 | 13562 ft | 326 kts | 224° |
| 2026-05-07 06:50 | -7.35686 | 38.72059 | 14012 ft | 335 kts | 235° |
| 2026-05-07 06:50 | -7.36991 | 38.70123 | 14458 ft | 340 kts | 234° |
| 2026-05-07 06:51 | -7.38378 | 38.68137 | 14920 ft | 343 kts | 233° |
| 2026-05-07 06:51 | -7.39769 | 38.66169 | 15419 ft | 346 kts | 233° |
| 2026-05-07 06:51 | -7.41152 | 38.64224 | 15925 ft | 350 kts | 233° |
| 2026-05-07 06:51 | -7.42588 | 38.62218 | 16459 ft | 353 kts | 233° |
| 2026-05-07 06:52 | -7.44037 | 38.60203 | 17007 ft | 357 kts | 233° |
| 2026-05-07 06:52 | -7.45507 | 38.58156 | 17556 ft | 361 kts | 233° |
| 2026-05-07 06:52 | -7.46982 | 38.56102 | 18119 ft | 365 kts | 233° |
| 2026-05-07 06:52 | -7.48486 | 38.54015 | 18627 ft | 369 kts | 233° |
| 2026-05-07 06:53 | -7.49980 | 38.51929 | 19128 ft | 372 kts | 233° |
| 2026-05-07 06:53 | -7.51498 | 38.49815 | 19619 ft | 375 kts | 233° |
| 2026-05-07 06:53 | -7.53041 | 38.47666 | 20143 ft | 379 kts | 234° |
| 2026-05-07 06:53 | -7.54593 | 38.45503 | 20662 ft | 382 kts | 233° |
| 2026-05-07 06:54 | -7.56167 | 38.43311 | 21180 ft | 386 kts | 234° |
| 2026-05-07 06:54 | -7.57729 | 38.41136 | 21861 ft | 386 kts | 233° |
| 2026-05-07 06:54 | -7.59310 | 38.38933 | 22420 ft | 390 kts | 233° |
| 2026-05-07 06:54 | -7.60907 | 38.36707 | 22964 ft | 394 kts | 233° |
| 2026-05-07 06:55 | -7.62529 | 38.34446 | 23532 ft | 398 kts | 234° |
| 2026-05-07 06:55 | -7.64159 | 38.32173 | 23990 ft | 401 kts | 234° |
| 2026-05-07 06:55 | -7.65801 | 38.29884 | 24470 ft | 404 kts | 234° |
| 2026-05-07 06:55 | -7.67446 | 38.27590 | 24960 ft | 406 kts | 234° |
| 2026-05-07 06:56 | -7.69119 | 38.25259 | 25395 ft | 410 kts | 234° |
| 2026-05-07 06:56 | -7.70796 | 38.22922 | 25717 ft | 412 kts | 234° |
| 2026-05-07 06:56 | -7.72457 | 38.20602 | 26040 ft | 412 kts | 234° |
| 2026-05-07 06:56 | -7.74143 | 38.18249 | 26374 ft | 414 kts | 234° |
| 2026-05-07 06:57 | -7.75832 | 38.15884 | 26712 ft | 414 kts | 234° |
| 2026-05-07 06:57 | -7.77513 | 38.13551 | 27048 ft | 413 kts | 234° |
| 2026-05-07 06:57 | -7.79193 | 38.11180 | 27412 ft | 412 kts | 234° |
| 2026-05-07 06:57 | -7.80875 | 38.08843 | 27756 ft | 411 kts | 234° |
| 2026-05-07 06:58 | -7.82554 | 38.06511 | 28115 ft | 410 kts | 234° |
| 2026-05-07 06:58 | -7.84219 | 38.04181 | 28478 ft | 409 kts | 234° |
| 2026-05-07 06:58 | -7.85860 | 38.01887 | 28836 ft | 408 kts | 234° |
| 2026-05-07 06:58 | -7.87525 | 37.99563 | 29203 ft | 407 kts | 235° |
| 2026-05-07 06:59 | -7.89168 | 37.97249 | 29564 ft | 406 kts | 235° |
| 2026-05-07 06:59 | -7.90826 | 37.94933 | 29928 ft | 407 kts | 235° |
| 2026-05-07 06:59 | -7.92504 | 37.92599 | 30078 ft | 417 kts | 235° |
| 2026-05-07 06:59 | -7.94237 | 37.90182 | 30076 ft | 430 kts | 233° |
| 2026-05-07 07:00 | -7.96141 | 37.87850 | 30227 ft | 438 kts | 231° |
| 2026-05-07 07:00 | -7.98087 | 37.85483 | 30612 ft | 439 kts | 231° |
| 2026-05-07 07:00 | -8.00039 | 37.83088 | 30921 ft | 442 kts | 231° |
| 2026-05-07 07:00 | -8.01975 | 37.80703 | 31196 ft | 444 kts | 231° |
| 2026-05-07 07:01 | -8.03936 | 37.78287 | 31483 ft | 445 kts | 231° |
| 2026-05-07 07:01 | -8.05905 | 37.75859 | 31781 ft | 447 kts | 231° |
| 2026-05-07 07:01 | -8.07884 | 37.73417 | 32052 ft | 449 kts | 231° |
| 2026-05-07 07:01 | -8.09868 | 37.70968 | 32329 ft | 451 kts | 231° |
| 2026-05-07 07:02 | -8.11862 | 37.68507 | 32638 ft | 453 kts | 231° |
| 2026-05-07 07:02 | -8.13832 | 37.66076 | 32933 ft | 455 kts | 231° |
| 2026-05-07 07:02 | -8.15857 | 37.63576 | 33239 ft | 457 kts | 231° |
| 2026-05-07 07:02 | -8.17882 | 37.61076 | 33541 ft | 459 kts | 231° |
| 2026-05-07 07:03 | -8.19909 | 37.58573 | 33837 ft | 462 kts | 231° |
| 2026-05-07 07:03 | -8.21925 | 37.56083 | 34096 ft | 463 kts | 231° |
| 2026-05-07 07:03 | -8.23971 | 37.53555 | 34345 ft | 465 kts | 231° |
| 2026-05-07 07:03 | -8.26030 | 37.51011 | 34596 ft | 467 kts | 231° |
| 2026-05-07 07:04 | -8.28088 | 37.48467 | 34850 ft | 468 kts | 231° |
| 2026-05-07 07:04 | -8.30147 | 37.45923 | 35109 ft | 470 kts | 231° |
| 2026-05-07 07:04 | -8.32228 | 37.43349 | 35364 ft | 471 kts | 231° |
| 2026-05-07 07:04 | -8.34284 | 37.40807 | 35616 ft | 473 kts | 231° |
| 2026-05-07 07:05 | -8.36370 | 37.38227 | 35887 ft | 474 kts | 231° |
| 2026-05-07 07:05 | -8.38460 | 37.35641 | 36154 ft | 475 kts | 231° |
| 2026-05-07 07:05 | -8.40558 | 37.33046 | 36416 ft | 476 kts | 231° |
| 2026-05-07 07:05 | -8.42657 | 37.30449 | 36686 ft | 476 kts | 231° |
| 2026-05-07 07:06 | -8.44758 | 37.27849 | 36961 ft | 476 kts | 231° |
| 2026-05-07 07:06 | -8.46859 | 37.25247 | 37135 ft | 478 kts | 231° |
| 2026-05-07 07:06 | -8.51087 | 37.20106 | 37580 ft | 474 kts | 231° |
| 2026-05-07 07:07 | -8.53146 | 37.17509 | 37871 ft | 471 kts | 232° |
| 2026-05-07 07:07 | -8.55200 | 37.14931 | 38058 ft | 469 kts | 231° |
| 2026-05-07 07:07 | -8.59279 | 37.09864 | 38045 ft | 461 kts | 231° |
| 2026-05-07 07:08 | -8.63315 | 37.04859 | 38037 ft | 461 kts | 231° |
| 2026-05-07 07:08 | -8.67382 | 36.99816 | 38035 ft | 461 kts | 231° |
| 2026-05-07 07:09 | -8.70743 | 36.95646 | 38039 ft | 461 kts | 231° |
| 2026-05-07 07:09 | -8.74786 | 36.90628 | 38046 ft | 461 kts | 231° |
| 2026-05-07 07:10 | -8.79504 | 36.84772 | 38041 ft | 461 kts | 231° |
| 2026-05-07 07:10 | -8.82901 | 36.80552 | 38042 ft | 461 kts | 231° |
| 2026-05-07 07:11 | -8.86930 | 36.75547 | 38041 ft | 461 kts | 231° |
| 2026-05-07 07:11 | -8.90983 | 36.70509 | 38041 ft | 461 kts | 231° |
| 2026-05-07 07:12 | -8.95020 | 36.65490 | 38044 ft | 461 kts | 231° |
| 2026-05-07 07:12 | -8.99070 | 36.60450 | 38047 ft | 461 kts | 231° |
| 2026-05-07 07:13 | -9.03109 | 36.55424 | 38044 ft | 461 kts | 231° |
| 2026-05-07 07:13 | -9.07162 | 36.50379 | 38045 ft | 461 kts | 231° |
| 2026-05-07 07:14 | -9.11214 | 36.45332 | 38043 ft | 461 kts | 231° |
| 2026-05-07 07:14 | -9.15262 | 36.40290 | 38044 ft | 462 kts | 231° |
| 2026-05-07 07:15 | -9.19320 | 36.35231 | 38045 ft | 462 kts | 231° |
| 2026-05-07 07:15 | -9.23329 | 36.30233 | 38040 ft | 462 kts | 231° |
| 2026-05-07 07:16 | -9.27410 | 36.25142 | 38046 ft | 462 kts | 232° |
| 2026-05-07 07:16 | -9.31465 | 36.20082 | 38042 ft | 462 kts | 231° |
| 2026-05-07 07:17 | -9.35502 | 36.15042 | 38039 ft | 462 kts | 231° |
| 2026-05-07 07:17 | -9.39564 | 36.09970 | 38039 ft | 462 kts | 231° |
| 2026-05-07 07:18 | -9.43593 | 36.04937 | 38044 ft | 462 kts | 231° |
| 2026-05-07 07:18 | -9.47656 | 35.99857 | 38042 ft | 462 kts | 231° |
| 2026-05-07 07:19 | -9.51684 | 35.94822 | 38045 ft | 463 kts | 232° |
| 2026-05-07 07:19 | -9.55737 | 35.89752 | 38043 ft | 463 kts | 232° |
| 2026-05-07 07:20 | -9.59806 | 35.84659 | 38041 ft | 463 kts | 231° |
| 2026-05-07 07:20 | -9.63838 | 35.79610 | 38048 ft | 463 kts | 232° |
| 2026-05-07 07:21 | -9.67897 | 35.74526 | 38048 ft | 463 kts | 232° |
| 2026-05-07 07:21 | -9.71939 | 35.69461 | 38042 ft | 464 kts | 232° |
| 2026-05-07 07:22 | -9.76002 | 35.64368 | 38048 ft | 464 kts | 232° |
| 2026-05-07 07:22 | -9.80067 | 35.59269 | 38052 ft | 464 kts | 232° |
| 2026-05-07 07:23 | -9.84102 | 35.54208 | 38048 ft | 464 kts | 232° |
| 2026-05-07 07:23 | -9.88137 | 35.49142 | 38050 ft | 464 kts | 232° |
| 2026-05-07 07:24 | -9.92199 | 35.44041 | 38050 ft | 463 kts | 232° |
| 2026-05-07 07:24 | -9.96258 | 35.38943 | 38051 ft | 463 kts | 232° |
| 2026-05-07 07:25 | -10.02316 | 35.31327 | 38041 ft | 463 kts | 232° |
| 2026-05-07 07:26 | -10.06364 | 35.26236 | 38047 ft | 463 kts | 232° |
| 2026-05-07 07:26 | -10.10341 | 35.21232 | 38055 ft | 444 kts | 232° |
| 2026-05-07 07:27 | -10.14171 | 35.16413 | 38062 ft | 430 kts | 232° |
| 2026-05-07 07:27 | -10.17892 | 35.11725 | 38042 ft | 428 kts | 232° |
| 2026-05-07 07:28 | -10.21639 | 35.07005 | 38045 ft | 428 kts | 232° |
| 2026-05-07 07:28 | -10.25386 | 35.02283 | 38037 ft | 428 kts | 232° |
| 2026-05-07 07:29 | -10.29104 | 34.97593 | 38039 ft | 428 kts | 232° |
| 2026-05-07 07:29 | -10.32853 | 34.92866 | 38027 ft | 428 kts | 232° |
| 2026-05-07 07:30 | -10.36568 | 34.88178 | 38039 ft | 428 kts | 232° |
| 2026-05-07 07:30 | -10.40311 | 34.83453 | 38022 ft | 428 kts | 232° |
| 2026-05-07 07:31 | -10.44049 | 34.78733 | 38020 ft | 427 kts | 232° |
| 2026-05-07 07:31 | -10.47762 | 34.74040 | 38017 ft | 427 kts | 232° |
| 2026-05-07 07:32 | -10.51481 | 34.69323 | 38001 ft | 426 kts | 231° |
| 2026-05-07 07:32 | -10.55186 | 34.64656 | 38013 ft | 427 kts | 232° |
| 2026-05-07 07:33 | -10.58955 | 34.59988 | 38007 ft | 426 kts | 231° |
| 2026-05-07 07:33 | -10.62698 | 34.55349 | 37998 ft | 425 kts | 231° |
| 2026-05-07 07:34 | -10.66459 | 34.50697 | 38002 ft | 425 kts | 231° |
| 2026-05-07 07:34 | -10.70228 | 34.46054 | 37985 ft | 425 kts | 231° |
| 2026-05-07 07:35 | -10.73920 | 34.41419 | 37995 ft | 424 kts | 232° |
| 2026-05-07 07:35 | -10.77599 | 34.36740 | 37998 ft | 423 kts | 232° |
| 2026-05-07 07:36 | -10.81223 | 34.32106 | 37997 ft | 422 kts | 232° |
| 2026-05-07 07:36 | -10.84912 | 34.27426 | 38006 ft | 421 kts | 232° |
| 2026-05-07 07:37 | -10.88565 | 34.22798 | 38014 ft | 420 kts | 232° |
| 2026-05-07 07:37 | -10.92225 | 34.18143 | 38012 ft | 419 kts | 232° |
| 2026-05-07 07:38 | -10.95859 | 34.13517 | 38026 ft | 418 kts | 232° |
| 2026-05-07 07:38 | -10.99469 | 34.08921 | 38023 ft | 417 kts | 232° |
| 2026-05-07 07:39 | -11.03093 | 34.04303 | 38024 ft | 416 kts | 232° |
| 2026-05-07 07:39 | -11.06698 | 33.99710 | 38031 ft | 415 kts | 232° |
| 2026-05-07 07:40 | -11.10288 | 33.95131 | 38032 ft | 414 kts | 232° |
| 2026-05-07 07:40 | -11.13887 | 33.90541 | 38028 ft | 414 kts | 232° |
| 2026-05-07 07:41 | -11.17536 | 33.85884 | 38027 ft | 426 kts | 232° |
| 2026-05-07 07:41 | -11.21266 | 33.81122 | 38024 ft | 438 kts | 232° |
| 2026-05-07 07:42 | -11.25125 | 33.76193 | 38026 ft | 449 kts | 232° |
| 2026-05-07 07:42 | -11.29008 | 33.71232 | 38024 ft | 450 kts | 232° |
| 2026-05-07 07:43 | -11.32914 | 33.66237 | 38034 ft | 450 kts | 232° |
| 2026-05-07 07:43 | -11.36786 | 33.61284 | 38031 ft | 449 kts | 232° |
| 2026-05-07 07:44 | -11.40697 | 33.56278 | 38022 ft | 449 kts | 232° |
| 2026-05-07 07:44 | -11.44574 | 33.51310 | 38019 ft | 449 kts | 232° |
| 2026-05-07 07:45 | -11.48472 | 33.46315 | 38025 ft | 449 kts | 233° |
| 2026-05-07 07:45 | -11.52344 | 33.41350 | 38019 ft | 449 kts | 233° |
| 2026-05-07 07:46 | -11.56224 | 33.36374 | 38014 ft | 449 kts | 233° |
| 2026-05-07 07:46 | -11.60164 | 33.31395 | 38015 ft | 450 kts | 231° |
| 2026-05-07 07:47 | -11.64159 | 33.26516 | 38013 ft | 450 kts | 231° |
| 2026-05-07 07:47 | -11.68173 | 33.21595 | 38009 ft | 450 kts | 231° |
| 2026-05-07 07:48 | -11.72189 | 33.16665 | 38011 ft | 451 kts | 231° |
| 2026-05-07 07:48 | -11.76175 | 33.11773 | 38012 ft | 451 kts | 232° |
| 2026-05-07 07:49 | -11.80190 | 33.06841 | 38008 ft | 451 kts | 232° |
| 2026-05-07 07:49 | -11.84181 | 33.01935 | 38007 ft | 450 kts | 232° |
| 2026-05-07 07:50 | -11.88195 | 32.97000 | 38004 ft | 450 kts | 232° |
| 2026-05-07 07:50 | -11.92180 | 32.92098 | 38006 ft | 450 kts | 232° |
| 2026-05-07 07:51 | -11.96185 | 32.87169 | 38007 ft | 450 kts | 232° |
| 2026-05-07 07:51 | -12.00179 | 32.82250 | 38002 ft | 450 kts | 232° |
| 2026-05-07 07:52 | -12.04185 | 32.77315 | 37998 ft | 449 kts | 232° |
| 2026-05-07 07:52 | -12.08155 | 32.72420 | 38005 ft | 449 kts | 232° |
| 2026-05-07 07:53 | -12.12119 | 32.67532 | 38000 ft | 449 kts | 232° |
| 2026-05-07 07:53 | -12.16125 | 32.62589 | 37998 ft | 448 kts | 232° |
| 2026-05-07 07:54 | -12.20082 | 32.57699 | 37998 ft | 448 kts | 232° |
| 2026-05-07 07:54 | -12.24055 | 32.52784 | 37998 ft | 448 kts | 232° |
| 2026-05-07 07:55 | -12.28002 | 32.47901 | 37998 ft | 447 kts | 232° |
| 2026-05-07 07:55 | -12.31968 | 32.42989 | 37998 ft | 447 kts | 232° |
| 2026-05-07 07:56 | -12.35893 | 32.38126 | 37997 ft | 446 kts | 232° |
| 2026-05-07 07:56 | -12.39871 | 32.33196 | 37995 ft | 446 kts | 232° |
| 2026-05-07 07:57 | -12.43800 | 32.28322 | 37997 ft | 445 kts | 232° |
| 2026-05-07 07:57 | -12.47736 | 32.23439 | 37997 ft | 445 kts | 232° |
| 2026-05-07 07:58 | -12.51676 | 32.18547 | 37997 ft | 444 kts | 232° |
| 2026-05-07 07:58 | -12.55583 | 32.13693 | 37995 ft | 443 kts | 232° |
| 2026-05-07 07:59 | -12.59512 | 32.08811 | 37993 ft | 442 kts | 232° |
| 2026-05-07 07:59 | -12.62754 | 32.04779 | 37994 ft | 442 kts | 232° |
| 2026-05-07 08:00 | -12.66674 | 31.99902 | 37995 ft | 441 kts | 232° |
| 2026-05-07 08:00 | -12.70557 | 31.95070 | 37994 ft | 441 kts | 233° |
| 2026-05-07 08:01 | -12.74456 | 31.90214 | 37997 ft | 440 kts | 233° |
| 2026-05-07 08:01 | -12.78348 | 31.85364 | 37998 ft | 439 kts | 233° |
| 2026-05-07 08:02 | -12.82208 | 31.80553 | 37997 ft | 439 kts | 233° |
| 2026-05-07 08:02 | -12.86093 | 31.75706 | 37997 ft | 439 kts | 233° |
| 2026-05-07 08:03 | -12.89944 | 31.70901 | 38000 ft | 438 kts | 233° |
| 2026-05-07 08:03 | -12.93727 | 31.66012 | 37998 ft | 436 kts | 238° |
| 2026-05-07 08:04 | -12.97174 | 31.60883 | 38003 ft | 436 kts | 237° |
| 2026-05-07 08:04 | -13.00667 | 31.55777 | 38001 ft | 436 kts | 237° |
| 2026-05-07 08:05 | -13.04135 | 31.50720 | 38005 ft | 436 kts | 237° |
| 2026-05-07 08:05 | -13.07623 | 31.45634 | 38000 ft | 436 kts | 237° |
| 2026-05-07 08:06 | -13.11113 | 31.40541 | 38007 ft | 435 kts | 237° |
| 2026-05-07 08:06 | -13.14606 | 31.35481 | 38005 ft | 436 kts | 234° |
| 2026-05-07 08:07 | -13.18388 | 31.30611 | 38005 ft | 436 kts | 234° |
| 2026-05-07 08:07 | -13.22118 | 31.25745 | 38002 ft | 436 kts | 234° |
| 2026-05-07 08:08 | -13.25880 | 31.20829 | 37999 ft | 436 kts | 234° |
| 2026-05-07 08:08 | -13.29605 | 31.15960 | 37999 ft | 436 kts | 234° |
| 2026-05-07 08:09 | -13.33352 | 31.11058 | 38000 ft | 436 kts | 234° |
| 2026-05-07 08:09 | -13.37096 | 31.06158 | 37994 ft | 435 kts | 234° |
| 2026-05-07 08:10 | -13.40821 | 31.01279 | 37994 ft | 435 kts | 234° |
| 2026-05-07 08:10 | -13.44559 | 30.96379 | 37985 ft | 435 kts | 234° |
| 2026-05-07 08:11 | -13.48299 | 30.91477 | 37992 ft | 435 kts | 234° |
| 2026-05-07 08:11 | -13.52038 | 30.86571 | 37984 ft | 435 kts | 234° |
| 2026-05-07 08:12 | -13.55748 | 30.81702 | 37984 ft | 435 kts | 234° |
| 2026-05-07 08:12 | -13.59479 | 30.76801 | 37977 ft | 435 kts | 234° |
| 2026-05-07 08:13 | -13.63215 | 30.71892 | 37977 ft | 435 kts | 234° |
| 2026-05-07 08:13 | -13.66926 | 30.67012 | 37983 ft | 435 kts | 234° |
| 2026-05-07 08:14 | -13.70656 | 30.62106 | 37980 ft | 434 kts | 234° |
| 2026-05-07 08:14 | -13.74377 | 30.57207 | 37982 ft | 434 kts | 234° |
| 2026-05-07 08:15 | -13.78079 | 30.52332 | 37990 ft | 434 kts | 234° |
| 2026-05-07 08:15 | -13.81580 | 30.47321 | 37974 ft | 428 kts | 247° |
| 2026-05-07 08:16 | -13.83440 | 30.41505 | 37977 ft | 427 kts | 255° |
| 2026-05-07 08:16 | -13.85086 | 30.35636 | 37991 ft | 427 kts | 256° |
| 2026-05-07 08:17 | -13.86669 | 30.29781 | 37993 ft | 427 kts | 256° |
| 2026-05-07 08:17 | -13.88246 | 30.23896 | 37995 ft | 426 kts | 256° |
| 2026-05-07 08:18 | -13.89824 | 30.18003 | 38002 ft | 426 kts | 256° |
| 2026-05-07 08:18 | -13.91391 | 30.12145 | 38010 ft | 426 kts | 256° |
| 2026-05-07 08:19 | -13.92964 | 30.06256 | 38006 ft | 426 kts | 256° |
| 2026-05-07 08:19 | -13.94528 | 30.00398 | 38014 ft | 425 kts | 256° |
| 2026-05-07 08:20 | -13.96094 | 29.94528 | 38014 ft | 425 kts | 256° |
| 2026-05-07 08:20 | -13.97653 | 29.88668 | 38020 ft | 425 kts | 256° |
| 2026-05-07 08:21 | -13.99219 | 29.82782 | 38021 ft | 425 kts | 256° |
| 2026-05-07 08:21 | -14.00784 | 29.76895 | 38015 ft | 425 kts | 256° |
| 2026-05-07 08:22 | -14.02335 | 29.71056 | 38024 ft | 425 kts | 256° |
| 2026-05-07 08:22 | -14.03892 | 29.65186 | 37927 ft | 426 kts | 256° |
| 2026-05-07 08:22 | -14.04671 | 29.62245 | 37666 ft | 424 kts | 256° |
| 2026-05-07 08:23 | -14.05451 | 29.59305 | 37400 ft | 425 kts | 256° |
| 2026-05-07 08:23 | -14.06231 | 29.56360 | 37121 ft | 426 kts | 256° |
| 2026-05-07 08:23 | -14.06999 | 29.53446 | 36890 ft | 427 kts | 256° |
| 2026-05-07 08:23 | -14.07783 | 29.50490 | 36625 ft | 428 kts | 256° |
| 2026-05-07 08:24 | -14.08567 | 29.47528 | 36372 ft | 429 kts | 256° |
| 2026-05-07 08:24 | -14.09355 | 29.44545 | 36120 ft | 430 kts | 256° |
| 2026-05-07 08:24 | -14.10411 | 29.41665 | 35863 ft | 433 kts | 242° |
| 2026-05-07 08:24 | -14.12197 | 29.39155 | 35602 ft | 438 kts | 229° |
| 2026-05-07 08:25 | -14.14328 | 29.36873 | 35361 ft | 441 kts | 229° |
| 2026-05-07 08:25 | -14.16445 | 29.34625 | 35111 ft | 443 kts | 228° |
| 2026-05-07 08:25 | -14.18613 | 29.32358 | 34866 ft | 444 kts | 227° |
| 2026-05-07 08:25 | -14.20795 | 29.30098 | 34626 ft | 445 kts | 227° |
| 2026-05-07 08:26 | -14.25166 | 29.25597 | 33970 ft | 442 kts | 227° |
| 2026-05-07 08:26 | -14.27345 | 29.23355 | 33581 ft | 440 kts | 227° |
| 2026-05-07 08:26 | -14.29470 | 29.21170 | 33167 ft | 433 kts | 227° |
| 2026-05-07 08:27 | -14.31593 | 29.18984 | 32703 ft | 427 kts | 227° |
| 2026-05-07 08:27 | -14.33693 | 29.16822 | 32185 ft | 423 kts | 227° |
| 2026-05-07 08:27 | -14.35778 | 29.14676 | 31670 ft | 420 kts | 227° |
| 2026-05-07 08:27 | -14.37816 | 29.12575 | 31182 ft | 417 kts | 227° |
| 2026-05-07 08:28 | -14.39863 | 29.10467 | 30671 ft | 415 kts | 227° |
| 2026-05-07 08:28 | -14.41899 | 29.08368 | 30198 ft | 412 kts | 227° |
| 2026-05-07 08:28 | -14.43888 | 29.06319 | 29652 ft | 409 kts | 227° |
| 2026-05-07 08:28 | -14.45918 | 29.04225 | 29109 ft | 407 kts | 227° |
| 2026-05-07 08:29 | -14.47917 | 29.02164 | 28574 ft | 404 kts | 227° |
| 2026-05-07 08:29 | -14.49883 | 29.00135 | 28072 ft | 402 kts | 227° |
| 2026-05-07 08:29 | -14.51852 | 28.98104 | 27569 ft | 399 kts | 227° |
| 2026-05-07 08:29 | -14.53840 | 28.96052 | 27079 ft | 397 kts | 227° |
| 2026-05-07 08:30 | -14.55776 | 28.94053 | 26613 ft | 395 kts | 227° |
| 2026-05-07 08:30 | -14.57716 | 28.92050 | 26151 ft | 393 kts | 227° |
| 2026-05-07 08:30 | -14.59656 | 28.90045 | 25696 ft | 392 kts | 227° |
| 2026-05-07 08:30 | -14.61553 | 28.88085 | 25251 ft | 390 kts | 227° |
| 2026-05-07 08:31 | -14.63454 | 28.86120 | 24827 ft | 388 kts | 227° |
| 2026-05-07 08:31 | -14.65386 | 28.84122 | 24407 ft | 387 kts | 227° |
| 2026-05-07 08:31 | -14.67265 | 28.82180 | 23994 ft | 385 kts | 227° |
| 2026-05-07 08:31 | -14.69170 | 28.80211 | 23594 ft | 383 kts | 227° |
| 2026-05-07 08:32 | -14.71010 | 28.78305 | 23105 ft | 383 kts | 227° |
| 2026-05-07 08:32 | -14.72921 | 28.76329 | 22706 ft | 379 kts | 227° |
| 2026-05-07 08:32 | -14.74763 | 28.74421 | 22263 ft | 377 kts | 227° |
| 2026-05-07 08:32 | -14.76604 | 28.72514 | 21871 ft | 373 kts | 227° |
| 2026-05-07 08:33 | -14.78438 | 28.70616 | 21467 ft | 371 kts | 227° |
| 2026-05-07 08:33 | -14.80246 | 28.68743 | 21086 ft | 368 kts | 227° |
| 2026-05-07 08:33 | -14.82055 | 28.66869 | 20679 ft | 366 kts | 227° |
| 2026-05-07 08:33 | -14.83837 | 28.65020 | 20306 ft | 363 kts | 227° |
| 2026-05-07 08:34 | -14.85416 | 28.63006 | 19922 ft | 358 kts | 238° |
| 2026-05-07 08:34 | -14.86810 | 28.60866 | 19525 ft | 357 kts | 236° |
| 2026-05-07 08:34 | -14.88234 | 28.58767 | 19158 ft | 354 kts | 236° |
| 2026-05-07 08:34 | -14.89651 | 28.56702 | 18784 ft | 352 kts | 236° |
| 2026-05-07 08:35 | -14.91081 | 28.54636 | 18430 ft | 350 kts | 235° |
| 2026-05-07 08:35 | -14.92472 | 28.52634 | 18034 ft | 348 kts | 235° |
| 2026-05-07 08:35 | -14.93894 | 28.50591 | 17642 ft | 345 kts | 235° |
| 2026-05-07 08:35 | -14.95290 | 28.48587 | 17253 ft | 343 kts | 235° |
| 2026-05-07 08:36 | -14.96681 | 28.46589 | 16861 ft | 341 kts | 235° |
| 2026-05-07 08:36 | -14.98064 | 28.44603 | 16487 ft | 339 kts | 235° |
| 2026-05-07 08:36 | -14.99435 | 28.42635 | 16123 ft | 336 kts | 235° |
| 2026-05-07 08:36 | -15.00786 | 28.40694 | 15763 ft | 334 kts | 235° |
| 2026-05-07 08:37 | -15.02135 | 28.38755 | 15304 ft | 329 kts | 235° |
| 2026-05-07 08:37 | -15.03436 | 28.36817 | 14676 ft | 325 kts | 236° |
| 2026-05-07 08:37 | -15.04703 | 28.34922 | 14247 ft | 316 kts | 236° |
| 2026-05-07 08:37 | -15.05939 | 28.33074 | 13841 ft | 306 kts | 236° |
| 2026-05-07 08:38 | -15.07133 | 28.31290 | 13265 ft | 302 kts | 236° |
| 2026-05-07 08:38 | -15.08323 | 28.29512 | 12655 ft | 300 kts | 236° |
| 2026-05-07 08:38 | -15.09677 | 28.27890 | 12047 ft | 299 kts | 218° |
| 2026-05-07 08:38 | -15.11531 | 28.26959 | 11465 ft | 299 kts | 194° |
| 2026-05-07 08:39 | -15.13601 | 28.26642 | 10865 ft | 299 kts | 189° |
| 2026-05-07 08:39 | -15.15665 | 28.26376 | 10276 ft | 298 kts | 188° |
| 2026-05-07 08:39 | -15.17694 | 28.26126 | 9677 ft | 297 kts | 188° |
| 2026-05-07 08:39 | -15.19721 | 28.25879 | 9090 ft | 294 kts | 187° |
| 2026-05-07 08:40 | -15.21759 | 28.25646 | 8528 ft | 291 kts | 186° |
| 2026-05-07 08:40 | -15.23768 | 28.25416 | 7975 ft | 289 kts | 187° |
| 2026-05-07 08:40 | -15.25760 | 28.25183 | 7439 ft | 286 kts | 186° |
| 2026-05-07 08:40 | -15.27714 | 28.24975 | 6912 ft | 283 kts | 181° |
| 2026-05-07 08:41 | -15.29597 | 28.25397 | 6463 ft | 275 kts | 149° |
| 2026-05-07 08:41 | -15.30929 | 28.26710 | 6223 ft | 260 kts | 120° |
| 2026-05-07 08:41 | -15.31484 | 28.28424 | 5996 ft | 246 kts | 97° |
| 2026-05-07 08:41 | -15.31664 | 28.30141 | 5830 ft | 231 kts | 97° |
| 2026-05-07 08:42 | -15.31840 | 28.31721 | 5806 ft | 211 kts | 98° |
| 2026-05-07 08:42 | -15.32029 | 28.33171 | 5721 ft | 200 kts | 97° |
| 2026-05-07 08:42 | -15.32155 | 28.34605 | 5499 ft | 199 kts | 96° |
| 2026-05-07 08:42 | -15.32270 | 28.35962 | 5289 ft | 180 kts | 96° |
| 2026-05-07 08:43 | -15.32376 | 28.37191 | 5075 ft | 162 kts | 96° |
| 2026-05-07 08:43 | -15.32470 | 28.38314 | 4872 ft | 155 kts | 96° |
| 2026-05-07 08:43 | -15.32568 | 28.39418 | 4636 ft | 155 kts | 95° |
| 2026-05-07 08:43 | -15.32667 | 28.40555 | 4405 ft | 158 kts | 95° |
| 2026-05-07 08:44 | -15.32765 | 28.41677 | 4139 ft | 157 kts | 96° |
| 2026-05-07 08:44 | -15.32863 | 28.42798 | 3936 ft | 154 kts | 96° |
| 2026-05-07 08:44 | -15.32960 | 28.43888 | 3784 ft | 147 kts | 95° |
| 2026-05-07 08:44 | -15.33038 | 28.44789 | 3782 ft | 102 kts | 95° |
| 2026-05-07 08:45 | -15.33089 | 28.45361 | 3780 ft | 57 kts | 95° |
| 2026-05-07 08:45 | -15.33111 | 28.45617 | 3780 ft | 20 kts | 97° |
| 2026-05-07 08:45 | -15.33125 | 28.45766 | 3783 ft | 22 kts | 94° |
| 2026-05-07 08:45 | -15.33136 | 28.45919 | 3783 ft | 17 kts | 86° |
| 2026-05-07 08:46 | -15.33057 | 28.45972 | 3784 ft | 15 kts | 350° |
| 2026-05-07 08:46 | -15.32961 | 28.45915 | 3787 ft | 16 kts | 311° |
| 2026-05-07 08:46 | -15.32935 | 28.45825 | 3782 ft | 10 kts | 274° |
| 2026-05-07 08:46 | -15.32929 | 28.45744 | 3777 ft | 12 kts | 275° |
| 2026-05-07 08:47 | -15.32921 | 28.45647 | 3784 ft | 15 kts | 275° |
| 2026-05-07 08:47 | -15.32912 | 28.45551 | 3777 ft | 12 kts | 274° |
| 2026-05-07 08:47 | -15.32906 | 28.45474 | 3786 ft | 10 kts | 276° |
| 2026-05-07 08:47 | -15.32901 | 28.45422 | 3777 ft | 12 kts | 276° |
| 2026-05-07 08:48 | -15.32893 | 28.45333 | 3777 ft | 10 kts | 276° |
| 2026-05-07 08:48 | -15.32887 | 28.45279 | 3779 ft | 0 kts | 276° |
| 2026-05-07 08:52 | -15.32887 | 28.45274 | 3777 ft | 2 kts | 275° |
| 2026-05-07 08:52 | -15.32884 | 28.45245 | 3777 ft | 6 kts | 275° |
| 2026-05-07 08:52 | -15.32880 | 28.45190 | 3777 ft | 9 kts | 275° |
| 2026-05-07 08:52 | -15.32872 | 28.45120 | 3784 ft | 11 kts | 274° |
| 2026-05-07 08:53 | -15.32819 | 28.45082 | 3780 ft | 11 kts | 6° |
| 2026-05-07 08:53 | -15.32737 | 28.45081 | 3776 ft | 11 kts | 323° |
| 2026-05-07 08:53 | -15.32722 | 28.45006 | 3778 ft | 12 kts | 276° |
| 2026-05-07 08:53 | -15.32714 | 28.44913 | 3777 ft | 14 kts | 274° |
| 2026-05-07 08:54 | -15.32706 | 28.44822 | 3777 ft | 9 kts | 291° |
| 2026-05-07 08:54 | -15.32674 | 28.44808 | 3783 ft | 4 kts | 1° |
| 2026-05-07 08:54 | -15.32660 | 28.44809 | 3776 ft | 0 kts | 5° |